Time;durP1;ratioP1;P1;durP2;ratioP2;P2;SDS_P1;SDS_P2;PMS_P1;PMS_P2;Temp;Humidity;BMP_temperature;BMP_pressure;BME280_temperature;BME280_humidity;BME280_pressure;Samples;Min_cycle;Max_cycle;Signal;HPM_P1;HPM_P2
2022/02/21 00:02:24;;;;;;;9.03;5.12;;;;;;;5.23;57.20;99824.89;1731169;82;21110;-67
2022/02/21 00:04:51;;;;;;;11.22;5.20;;;;;;;5.24;57.19;99821.20;1740429;80;21613;-68
2022/02/21 00:07:18;;;;;;;10.70;5.10;;;;;;;5.27;57.21;99815.95;1730775;82;21139;-67
2022/02/21 00:09:46;;;;;;;9.93;5.12;;;;;;;5.26;57.37;99815.12;1735834;81;21004;-68
2022/02/21 00:12:14;;;;;;;8.98;5.08;;;;;;;5.27;57.46;99807.48;1733985;82;21079;-66
2022/02/21 00:14:41;;;;;;;9.28;4.72;;;;;;;5.27;57.52;99802.19;1736225;82;21042;-68
2022/02/21 00:17:08;;;;;;;9.75;5.22;;;;;;;5.29;57.54;99806.70;1735418;82;20996;-66
2022/02/21 00:19:35;;;;;;;9.45;4.80;;;;;;;5.30;57.57;99808.85;1735175;82;21233;-67
2022/02/21 00:22:03;;;;;;;8.85;4.70;;;;;;;5.32;57.63;99816.02;1733556;80;21087;-67
2022/02/21 00:24:31;;;;;;;9.58;4.90;;;;;;;5.32;57.77;99814.16;1736120;80;20968;-68
2022/02/21 00:26:58;;;;;;;9.10;5.00;;;;;;;5.30;57.88;99813.62;1747136;80;21189;-68
2022/02/21 00:29:25;;;;;;;7.70;4.45;;;;;;;5.29;57.91;99815.97;1716097;82;21139;-68
2022/02/21 00:31:52;;;;;;;8.38;4.47;;;;;;;5.29;57.96;99817.81;1714360;82;21558;-67
2022/02/21 00:34:19;;;;;;;8.23;4.60;;;;;;;5.28;58.14;99820.98;1713920;82;21069;-67
2022/02/21 00:36:45;;;;;;;9.05;4.80;;;;;;;5.23;58.19;99822.25;1720293;82;21122;-67
2022/02/21 00:39:12;;;;;;;9.68;4.80;;;;;;;5.18;58.38;99820.83;1721115;82;21503;-68
2022/02/21 00:41:40;;;;;;;9.23;5.20;;;;;;;5.11;58.45;99821.50;1721006;83;21727;-67
2022/02/21 00:44:08;;;;;;;8.23;4.25;;;;;;;5.06;58.47;99823.52;1719647;82;21603;-67
2022/02/21 00:46:35;;;;;;;7.95;4.58;;;;;;;5.02;58.53;99817.63;1721115;82;20968;-68
2022/02/21 00:49:03;;;;;;;9.20;5.15;;;;;;;4.97;58.57;99816.20;1721421;83;21503;-69
2022/02/21 00:51:32;;;;;;;11.45;5.58;;;;;;;4.91;58.58;99808.72;1720456;82;21056;-68
2022/02/21 00:53:59;;;;;;;8.43;4.80;;;;;;;4.83;58.66;99801.95;1716948;82;21018;-68
2022/02/21 00:56:28;;;;;;;11.43;5.45;;;;;;;4.74;58.73;99802.07;1714763;82;21102;-68
2022/02/21 00:58:54;;;;;;;8.50;4.97;;;;;;;4.65;58.80;99800.84;1713390;82;21039;-68
2022/02/21 01:01:21;;;;;;;9.40;5.05;;;;;;;4.57;58.93;99797.23;1715860;82;21067;-68
2022/02/21 01:03:49;;;;;;;9.70;5.50;;;;;;;4.50;59.04;99803.19;1720821;82;21116;-68
2022/02/21 01:06:17;;;;;;;10.72;5.40;;;;;;;4.39;59.12;99791.09;1715779;82;21632;-68
2022/02/21 01:08:44;;;;;;;7.65;4.75;;;;;;;4.34;59.25;99792.82;1691446;84;22240;-69
2022/02/21 01:11:13;;;;;;;11.12;5.25;;;;;;;4.26;59.41;99792.68;1715593;82;21106;-67
2022/02/21 01:13:40;;;;;;;10.15;5.50;;;;;;;4.18;59.61;99797.02;1717677;82;21310;-66
2022/02/21 01:16:07;;;;;;;7.83;4.75;;;;;;;4.12;59.86;99803.23;1716132;82;21114;-67
2022/02/21 01:18:34;;;;;;;8.55;5.33;;;;;;;4.03;60.04;99790.89;1717146;82;21074;-67
2022/02/21 01:21:02;;;;;;;9.05;4.95;;;;;;;3.95;60.32;99796.02;1712775;82;21116;-68
2022/02/21 01:23:29;;;;;;;8.88;5.03;;;;;;;3.89;60.58;99801.43;1719397;82;20938;-67
2022/02/21 01:25:55;;;;;;;11.75;5.80;;;;;;;3.83;60.87;99807.11;1719547;82;21040;-68
2022/02/21 01:28:22;;;;;;;8.08;5.05;;;;;;;3.74;61.17;99801.36;1722628;82;21193;-67
2022/02/21 01:30:48;;;;;;;9.43;5.37;;;;;;;3.67;61.42;99803.32;1713005;82;21371;-68
2022/02/21 01:33:18;;;;;;;12.53;5.95;;;;;;;3.63;61.73;99798.73;1715140;82;21513;-66
2022/02/21 01:35:44;;;;;;;10.18;5.50;;;;;;;3.58;61.92;99798.61;1716282;82;21023;-68
2022/02/21 01:38:11;;;;;;;9.25;5.47;;;;;;;3.54;62.10;99798.27;1722709;82;20999;-68
2022/02/21 01:40:38;;;;;;;11.00;5.67;;;;;;;3.50;62.25;99797.92;1716993;82;21353;-68
2022/02/21 01:43:05;;;;;;;9.83;5.12;;;;;;;3.48;62.32;99790.73;1722028;82;21011;-68
2022/02/21 01:45:32;;;;;;;9.83;5.25;;;;;;;3.44;62.45;99788.80;1713236;82;21161;-67
2022/02/21 01:47:59;;;;;;;9.63;5.28;;;;;;;3.40;62.58;99788.45;1721933;82;20949;-68
2022/02/21 01:50:26;;;;;;;11.83;5.22;;;;;;;3.37;62.77;99796.82;1716941;82;21058;-68
2022/02/21 01:52:53;;;;;;;10.78;5.22;;;;;;;3.32;62.97;99791.41;1733051;82;20999;-68
2022/02/21 01:55:20;;;;;;;9.05;5.40;;;;;;;3.27;63.15;99776.79;1733954;82;21573;-68
2022/02/21 01:57:50;;;;;;;9.28;5.42;;;;;;;3.24;63.27;99771.96;1726239;82;21043;-69
2022/02/21 02:00:17;;;;;;;9.85;5.35;;;;;;;3.19;63.50;99775.30;1719479;82;21569;-68
2022/02/21 02:02:46;;;;;;;8.50;5.47;;;;;;;3.14;63.71;99775.68;1712477;82;21185;-68
2022/02/21 02:05:16;;;;;;;9.95;5.75;;;;;;;3.09;63.95;99771.59;1713094;82;21596;-69
2022/02/21 02:07:44;;;;;;;9.33;4.95;;;;;;;3.05;64.18;99778.63;1710575;82;21163;-67
2022/02/21 02:10:15;;;;;;;10.08;5.80;;;;;;;3.02;64.43;99769.05;1711243;82;21087;-68
2022/02/21 02:12:43;;;;;;;10.32;5.28;;;;;;;2.99;64.61;99762.38;1718609;82;21182;-68
2022/02/21 02:15:15;;;;;;;8.48;4.67;;;;;;;2.99;64.77;99761.06;1703591;84;21134;-68
2022/02/21 02:17:42;;;;;;;;;;;;;;;2.96;65.02;99754.95;1713617;82;21593;-68
2022/02/21 02:20:11;;;;;;;11.40;5.45;;;;;;;2.92;65.26;99760.37;1721137;83;20133;-67
2022/02/21 02:22:38;;;;;;;9.68;5.20;;;;;;;2.88;65.52;99763.70;1719917;82;21797;-67
2022/02/21 02:25:06;;;;;;;9.03;4.92;;;;;;;2.84;65.75;99760.70;1713648;82;21086;-68
2022/02/21 02:27:33;;;;;;;7.25;4.90;;;;;;;2.84;66.17;99763.34;1722874;82;21538;-68
2022/02/21 02:30:01;;;;;;;7.83;5.03;;;;;;;2.81;66.42;99761.95;1717384;82;21147;-68
2022/02/21 02:32:28;;;;;;;9.53;5.22;;;;;;;2.82;66.62;99764.08;1712170;82;20988;-68
2022/02/21 02:34:56;;;;;;;9.50;5.37;;;;;;;2.80;66.80;99764.83;1703751;84;21634;-68
2022/02/21 02:37:24;;;;;;;11.25;5.37;;;;;;;2.80;66.94;99764.83;1709375;82;21059;-68
2022/02/21 02:39:51;;;;;;;8.43;5.53;;;;;;;2.79;67.25;99761.88;1715493;82;21037;-68
2022/02/21 02:42:18;;;;;;;8.55;5.67;;;;;;;2.78;67.43;99761.60;1718647;82;21502;-68
2022/02/21 02:44:45;;;;;;;11.15;5.47;;;;;;;2.76;67.62;99759.70;1721256;82;21043;-68
2022/02/21 02:47:12;;;;;;;7.58;5.08;;;;;;;2.76;67.84;99764.97;1722181;82;22311;-68
2022/02/21 02:49:40;;;;;;;9.03;4.85;;;;;;;2.74;67.98;99763.89;1716778;82;21094;-67
2022/02/21 02:52:07;;;;;;;10.23;5.37;;;;;;;2.75;68.17;99766.80;1720251;82;21165;-67
2022/02/21 02:54:37;;;;;;;8.70;5.20;;;;;;;2.74;68.38;99768.36;1715269;82;20995;-67
2022/02/21 02:57:04;;;;;;;8.88;5.12;;;;;;;2.74;68.72;99771.00;1714790;82;21544;-67
2022/02/21 02:59:31;;;;;;;10.53;5.65;;;;;;;2.75;68.94;99765.48;1716484;82;21568;-68
2022/02/21 03:01:58;;;;;;;8.35;5.25;;;;;;;2.72;69.00;99751.95;1718184;82;21562;-67
2022/02/21 03:04:25;;;;;;;9.75;5.00;;;;;;;2.71;69.22;99749.83;1720559;82;21035;-68
2022/02/21 03:06:52;;;;;;;7.08;4.33;;;;;;;2.70;69.28;99750.05;1714671;82;21534;-68
2022/02/21 03:09:18;;;;;;;9.15;5.45;;;;;;;2.69;69.52;99760.31;1712770;82;21023;-68
2022/02/21 03:11:45;;;;;;;8.75;6.17;;;;;;;2.67;69.55;99745.25;1719994;82;21161;-68
2022/02/21 03:14:12;;;;;;;8.78;5.10;;;;;;;2.68;69.64;99748.16;1721078;83;21008;-68
2022/02/21 03:16:40;;;;;;;9.73;5.45;;;;;;;2.68;69.70;99748.16;1721366;82;21079;-68
2022/02/21 03:19:07;;;;;;;8.80;5.25;;;;;;;2.70;69.69;99754.83;1703945;84;21019;-68
2022/02/21 03:21:34;;;;;;;8.65;5.25;;;;;;;2.71;69.68;99745.08;1703794;84;21172;-69
2022/02/21 03:24:00;;;;;;;9.20;4.90;;;;;;;2.72;69.72;99750.63;1703904;84;21535;-68
2022/02/21 03:26:27;;;;;;;8.93;5.17;;;;;;;2.74;69.80;99744.11;1715505;82;21003;-68
2022/02/21 03:28:55;;;;;;;7.72;4.42;;;;;;;2.77;69.86;99738.91;1717549;82;21578;-68
2022/02/21 03:31:21;;;;;;;8.98;4.87;;;;;;;2.80;69.92;99738.46;1718926;82;20999;-69
2022/02/21 03:33:48;;;;;;;8.55;5.00;;;;;;;2.82;69.95;99736.38;1713221;82;21102;-68
2022/02/21 03:36:16;;;;;;;7.30;4.65;;;;;;;2.83;69.94;99732.73;1715860;82;21530;-68
2022/02/21 03:38:43;;;;;;;10.55;5.28;;;;;;;2.84;69.90;99727.73;1713952;82;21059;-68
2022/02/21 03:41:10;;;;;;;9.03;5.37;;;;;;;2.84;69.88;99724.30;1712097;82;21042;-68
2022/02/21 03:43:38;;;;;;;8.43;4.92;;;;;;;2.84;69.86;99714.55;1713741;82;21513;-67
2022/02/21 03:46:05;;;;;;;8.18;4.72;;;;;;;2.84;69.89;99707.96;1715170;82;21597;-67
2022/02/21 03:48:32;;;;;;;8.75;4.90;;;;;;;2.86;69.94;99713.80;1714901;82;21113;-68
2022/02/21 03:50:59;;;;;;;7.10;4.70;;;;;;;2.87;70.01;99706.19;1713623;82;21050;-67
2022/02/21 03:53:25;;;;;;;7.75;5.40;;;;;;;2.91;69.98;99698.11;1716255;82;21015;-68
2022/02/21 03:55:55;;;;;;;8.20;5.05;;;;;;;2.94;70.01;99691.58;1721918;82;21056;-67
2022/02/21 03:58:22;;;;;;;8.98;5.35;;;;;;;2.97;69.99;99693.24;1716604;82;21050;-68
2022/02/21 04:00:49;;;;;;;10.05;4.92;;;;;;;3.00;70.00;99689.35;1714140;82;21595;-67
2022/02/21 04:03:16;;;;;;;8.30;5.20;;;;;;;3.05;70.01;99688.94;1725867;82;21106;-68
2022/02/21 04:05:43;;;;;;;8.08;5.30;;;;;;;3.07;69.96;99687.40;1717534;82;21075;-68
2022/02/21 04:08:09;;;;;;;8.10;5.20;;;;;;;3.12;69.95;99693.30;1717184;82;21046;-67
2022/02/21 04:10:38;;;;;;;9.23;5.33;;;;;;;3.16;69.94;99691.31;1719649;82;21027;-68
2022/02/21 04:13:04;;;;;;;8.40;4.12;;;;;;;3.22;69.89;99690.89;1709453;82;21085;-67
2022/02/21 04:15:31;;;;;;;9.00;5.00;;;;;;;3.26;69.87;99696.02;1709769;83;21518;-67
2022/02/21 04:17:58;;;;;;;8.43;5.03;;;;;;;3.28;69.80;99691.30;1712459;83;21062;-66
2022/02/21 04:20:30;;;;;;;10.20;5.50;;;;;;;3.31;69.74;99689.52;1695478;83;21076;-68
2022/02/21 04:22:54;;;;;;;8.63;5.28;;;;;;;3.36;69.65;99680.92;1714770;83;21443;-67
2022/02/21 04:25:20;;;;;;;10.70;5.83;;;;;;;3.40;69.55;99683.38;1727920;82;21114;-68
2022/02/21 04:27:50;;;;;;;9.93;5.75;;;;;;;3.43;69.44;99678.44;1712338;83;21110;-67
2022/02/21 04:30:21;;;;;;;8.68;5.47;;;;;;;3.46;69.34;99674.02;1729106;81;20952;-67
2022/02/21 04:32:47;;;;;;;8.85;5.55;;;;;;;3.50;69.28;99672.52;1706270;83;21016;-68
2022/02/21 04:35:17;;;;;;;8.70;5.50;;;;;;;3.54;69.22;99668.89;1729092;82;20992;-67
2022/02/21 04:37:44;;;;;;;8.95;5.55;;;;;;;3.57;69.17;99667.11;1728816;82;21151;-67
2022/02/21 04:40:14;;;;;;;10.98;6.10;;;;;;;3.61;69.10;99662.96;1729833;81;21000;-67
2022/02/21 04:42:41;;;;;;;9.40;5.58;;;;;;;3.64;68.98;99653.25;1729558;81;21103;-67
2022/02/21 04:45:08;;;;;;;9.70;5.60;;;;;;;3.68;68.90;99654.91;1738706;82;21079;-67
2022/02/21 04:47:35;;;;;;;10.98;6.05;;;;;;;3.70;68.81;99649.69;1737380;81;21110;-68
2022/02/21 04:50:09;;;;;;;8.85;6.22;;;;;;;3.73;68.71;99651.06;1726764;82;21149;-68
2022/02/21 04:52:37;;;;;;;8.88;6.00;;;;;;;3.77;68.61;99649.55;1737522;82;21581;-68
2022/02/21 04:55:07;;;;;;;10.78;6.55;;;;;;;3.82;68.56;99641.73;1751697;82;21011;-68
2022/02/21 04:57:33;;;;;;;10.68;6.05;;;;;;;3.88;68.46;99646.58;1750210;82;21452;-68
2022/02/21 05:00:04;;;;;;;9.33;6.37;;;;;;;3.92;68.36;99647.22;1750697;81;21712;-68
2022/02/21 05:02:32;;;;;;;8.83;5.95;;;;;;;3.97;68.19;99648.61;1751482;82;21106;-68
2022/02/21 05:04:59;;;;;;;12.50;6.58;;;;;;;4.02;67.98;99655.05;1751516;82;20967;-68
2022/02/21 05:07:25;;;;;;;11.68;6.17;;;;;;;4.05;67.85;99652.74;1751537;82;21426;-67
2022/02/21 05:09:53;;;;;;;9.40;6.03;;;;;;;4.09;67.69;99651.75;1751789;81;21111;-68
2022/02/21 05:12:20;;;;;;;10.82;6.47;;;;;;;4.13;67.51;99645.74;1751664;81;20920;-67
2022/02/21 05:14:47;;;;;;;10.48;6.20;;;;;;;4.18;67.38;99644.52;1751647;82;21499;-68
2022/02/21 05:17:14;;;;;;;10.75;6.90;;;;;;;4.23;67.24;99645.92;1751390;82;21074;-68
2022/02/21 05:19:42;;;;;;;12.95;6.80;;;;;;;4.29;67.04;99647.34;1751592;81;21159;-68
2022/02/21 05:22:11;;;;;;;12.98;6.40;;;;;;;4.32;66.86;99638.42;1733692;81;21094;-67
2022/02/21 05:24:37;;;;;;;9.85;6.15;;;;;;;4.33;66.67;99638.69;1725004;82;21059;-68
2022/02/21 05:27:04;;;;;;;10.55;6.12;;;;;;;4.36;66.55;99630.28;1694913;83;22134;-69
2022/02/21 05:29:30;;;;;;;10.03;6.03;;;;;;;4.42;66.39;99633.30;1716018;83;21047;-68
2022/02/21 05:31:57;;;;;;;8.13;4.95;;;;;;;4.47;66.22;99633.89;1729660;81;21551;-68
2022/02/21 05:34:23;;;;;;;9.53;5.97;;;;;;;4.52;65.99;99630.55;1716162;83;21479;-68
2022/02/21 05:36:50;;;;;;;10.43;5.90;;;;;;;4.54;65.83;99631.92;1716241;83;20987;-68
2022/02/21 05:39:18;;;;;;;10.03;5.55;;;;;;;4.57;65.64;99630.09;1716768;83;21137;-67
2022/02/21 05:41:44;;;;;;;9.70;6.17;;;;;;;4.60;65.47;99628.29;1715689;83;21530;-68
2022/02/21 05:44:11;;;;;;;9.70;5.85;;;;;;;4.63;65.28;99622.52;1723745;82;21032;-69
2022/02/21 05:46:40;;;;;;;11.22;6.20;;;;;;;4.66;65.07;99619.92;1734472;81;21048;-68
2022/02/21 05:49:09;;;;;;;10.32;6.33;;;;;;;4.69;64.84;99620.77;1733268;81;21020;-68
2022/02/21 05:51:36;;;;;;;10.98;6.05;;;;;;;4.72;64.74;99624.26;1728068;82;22160;-67
2022/02/21 05:54:03;;;;;;;11.53;6.33;;;;;;;4.76;64.59;99625.38;1734628;81;21048;-69
2022/02/21 05:56:31;;;;;;;9.08;5.90;;;;;;;4.82;64.33;99620.97;1735384;81;21090;-68
2022/02/21 05:58:57;;;;;;;9.40;5.92;;;;;;;4.83;64.12;99622.03;1729442;81;21045;-68
2022/02/21 06:01:23;;;;;;;10.98;5.83;;;;;;;4.86;63.90;99617.58;1738424;82;21079;-68
2022/02/21 06:03:52;;;;;;;12.82;5.80;;;;;;;4.90;63.76;99612.11;1730817;82;21467;-68
2022/02/21 06:06:18;;;;;;;8.85;5.58;;;;;;;4.97;63.61;99608.47;1732620;81;21095;-69
2022/02/21 06:08:45;;;;;;;9.58;5.90;;;;;;;5.04;63.32;99597.21;1729769;82;21565;-68
2022/02/21 06:11:12;;;;;;;8.90;5.90;;;;;;;5.08;62.98;99597.00;1724056;82;21593;-67
2022/02/21 06:13:40;;;;;;;10.75;5.72;;;;;;;5.13;62.78;99600.52;1734725;81;21039;-68
2022/02/21 06:16:09;;;;;;;8.63;5.12;;;;;;;5.17;62.58;99598.98;1738601;82;21149;-68
2022/02/21 06:18:35;;;;;;;9.38;5.62;;;;;;;5.25;62.37;99599.07;1738452;81;21573;-68
2022/02/21 06:21:02;;;;;;;9.73;5.40;;;;;;;5.32;62.12;99597.56;1732654;81;21051;-68
2022/02/21 06:23:29;;;;;;;8.88;5.25;;;;;;;5.39;61.83;99589.70;1730789;81;21051;-68
2022/02/21 06:25:55;;;;;;;9.55;5.60;;;;;;;5.47;61.63;99590.34;1729620;82;21572;-68
2022/02/21 06:28:24;;;;;;;8.63;5.08;;;;;;;5.54;61.11;99583.02;1732884;82;21504;-67
2022/02/21 06:30:54;;;;;;;9.70;5.15;;;;;;;5.58;60.63;99575.63;1728606;82;21394;-67
2022/02/21 06:33:21;;;;;;;9.35;5.17;;;;;;;5.62;60.52;99573.28;1730639;82;21543;-68
2022/02/21 06:35:48;;;;;;;8.75;4.65;;;;;;;5.70;60.15;99562.80;1730298;81;22193;-68
2022/02/21 06:38:14;;;;;;;8.90;4.90;;;;;;;5.73;59.69;99567.59;1726813;82;21055;-68
2022/02/21 06:40:41;;;;;;;9.30;4.97;;;;;;;5.80;59.54;99565.02;1730822;82;21138;-68
2022/02/21 06:43:08;;;;;;;8.18;4.92;;;;;;;5.88;59.42;99569.86;1732493;82;21637;-69
2022/02/21 06:45:34;;;;;;;8.68;4.97;;;;;;;5.97;59.24;99558.85;1725279;82;21087;-68
2022/02/21 06:48:02;;;;;;;7.90;4.70;;;;;;;6.03;58.74;99551.22;1737683;82;21067;-68
2022/02/21 06:50:29;;;;;;;9.78;5.00;;;;;;;6.06;58.44;99547.55;1724959;82;21075;-68
2022/02/21 06:52:56;;;;;;;10.13;5.20;;;;;;;6.13;58.34;99547.86;1729092;82;22004;-68
2022/02/21 06:55:23;;;;;;;6.83;4.53;;;;;;;6.15;57.87;99546.54;1728384;81;21182;-67
2022/02/21 06:57:53;;;;;;;7.95;5.08;;;;;;;6.19;57.63;99539.70;1730797;82;21043;-68
2022/02/21 07:00:20;;;;;;;9.03;4.60;;;;;;;6.24;57.23;99537.60;1734446;82;21152;-68
2022/02/21 07:02:47;;;;;;;10.25;5.22;;;;;;;6.27;57.15;99540.55;1727404;82;21075;-68
2022/02/21 07:05:14;;;;;;;9.60;5.03;;;;;;;6.34;56.87;99535.82;1736102;82;21497;-68
2022/02/21 07:07:40;;;;;;;8.65;4.72;;;;;;;6.40;56.56;99538.53;1737309;81;21098;-68
2022/02/21 07:10:07;;;;;;;7.33;4.40;;;;;;;6.41;56.23;99540.91;1736869;82;21083;-68
2022/02/21 07:12:35;;;;;;;9.50;5.10;;;;;;;6.44;56.02;99538.28;1731045;82;21095;-68
2022/02/21 07:15:04;;;;;;;7.10;4.50;;;;;;;6.48;55.69;99538.04;1730108;82;21522;-68
2022/02/21 07:17:39;;;;;;;7.97;4.50;;;;;;;6.47;55.53;99538.57;1729730;82;21204;-68
2022/02/21 07:20:12;;;;;;;7.53;4.80;;;;;;;6.49;55.49;99532.50;1732581;82;20995;-69
2022/02/21 07:22:41;;;;;;;9.00;4.67;;;;;;;6.53;55.44;99532.78;1728874;81;21016;-68
2022/02/21 07:25:09;;;;;;;7.53;4.58;;;;;;;6.57;54.83;99526.70;1697923;83;21067;-67
2022/02/21 07:27:53;;;;;;;7.95;4.25;;;;;;;6.60;54.76;99529.37;1715118;82;21436;-68
2022/02/21 07:30:26;;;;;;;8.40;4.30;;;;;;;6.63;54.44;99526.75;1725770;82;20995;-68
2022/02/21 07:32:53;;;;;;;9.98;4.72;;;;;;;6.69;54.21;99522.55;1716235;82;21544;-68
2022/02/21 07:35:21;;;;;;;7.67;4.53;;;;;;;6.76;53.87;99527.09;1715265;82;22251;-67
2022/02/21 07:37:48;;;;;;;8.00;4.45;;;;;;;6.80;53.84;99517.55;1716167;82;21015;-68
2022/02/21 07:40:15;;;;;;;7.05;4.80;;;;;;;6.84;53.61;99519.16;1712812;82;21105;-68
2022/02/21 07:42:52;;;;;;;7.17;4.50;;;;;;;6.90;53.59;99522.11;1718764;82;21179;-68
2022/02/21 07:45:22;;;;;;;7.20;4.45;;;;;;;6.99;53.64;99519.78;1721456;82;21038;-67
2022/02/21 07:48:00;;;;;;;8.43;4.53;;;;;;;7.04;52.80;99507.84;1734910;81;20965;-68
2022/02/21 07:50:25;;;;;;;8.70;5.08;;;;;;;7.04;53.01;99509.16;1709509;83;20977;-68
2022/02/21 07:52:52;;;;;;;8.00;4.75;;;;;;;7.09;52.81;99519.83;1707738;83;21107;-67
2022/02/21 07:55:19;;;;;;;9.10;5.33;;;;;;;7.14;52.69;99507.91;1725815;82;21185;-68
2022/02/21 07:57:47;;;;;;;8.33;5.08;;;;;;;7.16;52.38;99517.72;1704017;83;21062;-68
2022/02/21 08:00:17;;;;;;;7.05;4.45;;;;;;;7.19;52.36;99514.55;1708353;84;20976;-68
2022/02/21 08:02:44;;;;;;;8.53;4.53;;;;;;;7.21;52.38;99508.46;1707999;84;21083;-68
2022/02/21 08:05:12;;;;;;;8.38;5.03;;;;;;;7.26;52.23;99504.48;1704180;83;21675;-68
2022/02/21 08:07:40;;;;;;;8.35;5.17;;;;;;;7.31;51.92;99494.42;1702544;83;21542;-68
2022/02/21 08:10:08;;;;;;;9.93;5.70;;;;;;;7.35;52.05;99491.50;1709253;83;21577;-68
2022/02/21 08:12:37;;;;;;;10.58;5.53;;;;;;;7.44;51.95;99494.45;1705951;83;21674;-68
2022/02/21 08:15:05;;;;;;;9.35;4.95;;;;;;;7.52;51.76;99498.71;1706338;83;21740;-68
2022/02/21 08:17:39;;;;;;;8.48;4.95;;;;;;;7.59;51.37;99497.66;1731558;82;21004;-68
2022/02/21 08:20:08;;;;;;;7.72;4.70;;;;;;;7.66;51.30;99490.23;1706903;83;21789;-68
2022/02/21 08:22:35;;;;;;;7.95;5.00;;;;;;;7.69;50.51;99493.69;1709027;82;21040;-69
2022/02/21 08:25:04;;;;;;;9.10;5.03;;;;;;;7.71;50.58;99492.38;1691647;84;21037;-68
2022/02/21 08:27:31;;;;;;;8.50;4.65;;;;;;;7.77;50.49;99481.23;1703316;83;21002;-68
2022/02/21 08:29:58;;;;;;;8.73;4.65;;;;;;;7.86;50.38;99490.78;1705338;83;20997;-67
2022/02/21 08:32:24;;;;;;;6.40;4.25;;;;;;;7.95;50.15;99483.88;1707963;84;21128;-68
2022/02/21 08:34:51;;;;;;;7.37;4.00;;;;;;;8.02;49.87;99482.29;1708933;83;21067;-68
2022/02/21 08:37:18;;;;;;;7.85;4.28;;;;;;;8.13;49.72;99482.57;1698622;83;21058;-66
2022/02/21 08:39:45;;;;;;;8.13;4.70;;;;;;;8.21;49.21;99482.81;1706106;83;21583;-68
2022/02/21 08:42:11;;;;;;;8.13;4.40;;;;;;;8.29;49.22;99475.35;1708389;83;21032;-68
2022/02/21 08:44:38;;;;;;;7.92;4.00;;;;;;;8.36;48.86;99465.26;1708168;84;21087;-68
2022/02/21 08:47:05;;;;;;;7.33;3.67;;;;;;;8.45;48.75;99472.42;1704870;83;21030;-68
2022/02/21 08:49:34;;;;;;;6.33;3.85;;;;;;;8.52;47.93;99469.48;1701377;83;21143;-68
2022/02/21 08:52:01;;;;;;;7.50;4.03;;;;;;;8.54;47.84;99468.69;1700291;83;21365;-68
2022/02/21 08:54:28;;;;;;;6.67;3.80;;;;;;;8.60;47.97;99472.15;1704340;83;21486;-68
2022/02/21 08:56:55;;;;;;;7.47;4.53;;;;;;;8.67;47.93;99466.80;1699899;83;21597;-68
2022/02/21 08:59:22;;;;;;;9.30;4.35;;;;;;;8.75;47.23;99459.31;1702459;83;21083;-68
2022/02/21 09:01:49;;;;;;;7.08;3.60;;;;;;;8.75;47.10;99458.77;1703309;83;21054;-68
2022/02/21 09:04:15;;;;;;;6.90;3.67;;;;;;;8.75;46.94;99465.97;1706619;83;22365;-68
2022/02/21 09:06:44;;;;;;;5.47;3.37;;;;;;;8.75;47.03;99457.44;1707804;83;20996;-69
2022/02/21 09:09:11;;;;;;;6.20;3.92;;;;;;;8.82;47.21;99454.52;1706479;84;21171;-68
2022/02/21 09:11:39;;;;;;;6.62;3.65;;;;;;;8.84;46.88;99448.37;1706581;84;21060;-68
2022/02/21 09:14:05;;;;;;;8.03;3.90;;;;;;;8.95;46.96;99443.79;1708003;84;21499;-68
2022/02/21 09:16:32;;;;;;;6.20;4.10;;;;;;;9.01;46.75;99432.84;1708212;83;21017;-68
2022/02/21 09:18:59;;;;;;;9.40;4.20;;;;;;;9.10;46.63;99428.54;1720444;83;21023;-68
2022/02/21 09:21:26;;;;;;;7.90;3.70;;;;;;;9.22;46.59;99434.09;1720179;83;21095;-69
2022/02/21 09:23:54;;;;;;;6.28;3.77;;;;;;;9.33;46.41;99425.74;1718748;83;21047;-68
2022/02/21 09:26:22;;;;;;;6.80;3.92;;;;;;;9.46;46.14;99425.67;1707374;83;21634;-68
2022/02/21 09:28:49;;;;;;;6.95;3.95;;;;;;;9.58;45.45;99429.33;1694071;83;21041;-69
2022/02/21 09:31:16;;;;;;;6.12;3.90;;;;;;;9.63;45.51;99414.07;1716283;82;21002;-68
2022/02/21 09:33:43;;;;;;;7.30;4.00;;;;;;;9.74;45.26;99417.48;1693540;84;21553;-68
2022/02/21 09:36:09;;;;;;;7.10;3.80;;;;;;;9.80;44.85;99417.67;1733481;82;21004;-68
2022/02/21 09:38:37;;;;;;;6.10;3.65;;;;;;;9.84;44.77;99413.39;1721734;82;21058;-68
2022/02/21 09:41:04;;;;;;;8.70;3.90;;;;;;;9.90;44.78;99400.78;1732762;82;21051;-68
2022/02/21 09:43:31;;;;;;;7.70;3.95;;;;;;;9.99;44.47;99396.98;1733040;82;21426;-69
2022/02/21 09:46:00;;;;;;;7.30;4.08;;;;;;;10.08;44.27;99401.43;1728327;82;21585;-69
2022/02/21 09:48:27;;;;;;;7.17;3.55;;;;;;;10.18;44.08;99399.74;1711170;82;21117;-69
2022/02/21 09:51:02;;;;;;;7.30;4.05;;;;;;;10.23;43.21;99403.17;1716533;82;21019;-69
2022/02/21 09:53:33;;;;;;;6.67;3.72;;;;;;;10.18;43.45;99398.41;1721124;82;21534;-68
2022/02/21 09:56:00;;;;;;;6.97;4.20;;;;;;;10.18;43.37;99399.74;1712119;82;21086;-68
2022/02/21 09:58:31;;;;;;;5.20;3.50;;;;;;;10.11;43.28;99397.41;1714700;82;21567;-67
2022/02/21 10:00:58;;;;;;;7.33;3.65;;;;;;;10.05;43.27;99383.86;1730532;82;21007;-69
2022/02/21 10:03:41;;;;;;;8.70;3.70;;;;;;;10.00;43.28;99372.70;1702622;83;21026;-69
2022/02/21 10:06:16;;;;;;;;;;;;;;;10.01;43.65;99368.95;1735733;82;21554;-68
2022/02/21 10:09:12;;;;;;;6.80;3.37;;;;;;;10.07;43.51;99373.71;1727524;82;20201;-68
2022/02/21 10:11:44;;;;;;;5.87;3.10;;;;;;;10.06;43.17;99378.23;1729339;81;21096;-68
2022/02/21 10:14:17;;;;;;;7.83;3.37;;;;;;;10.04;43.24;99376.40;1727839;81;21036;-70
2022/02/21 10:16:49;;;;;;;6.28;3.30;;;;;;;10.03;43.37;99380.12;1730893;81;21130;-69
2022/02/21 10:19:35;;;;;;;5.92;3.47;;;;;;;10.00;43.13;99375.37;1732499;81;21105;-69
2022/02/21 10:22:11;;;;;;;5.60;3.45;;;;;;;9.98;43.22;99376.19;1736210;81;21039;-68
2022/02/21 10:24:46;;;;;;;5.50;3.37;;;;;;;9.98;43.41;99365.52;1735086;82;21146;-66
2022/02/21 10:27:22;;;;;;;7.42;3.30;;;;;;;9.91;43.27;99358.39;1734790;82;21778;-67
2022/02/21 10:30:02;;;;;;;6.92;3.52;;;;;;;9.91;43.42;99365.60;1730758;82;21050;-68
2022/02/21 10:32:31;;;;;;;6.25;3.42;;;;;;;9.91;43.30;99365.60;1734340;82;21023;-69
2022/02/21 10:35:21;;;;;;;5.80;3.40;;;;;;;9.87;43.33;99361.34;1727946;82;21058;-68
2022/02/21 10:37:58;;;;;;;6.42;3.65;;;;;;;9.88;43.59;99352.28;1735980;82;21136;-68
2022/02/21 10:40:37;;;;;;;6.35;3.40;;;;;;;9.94;43.72;99343.16;1735319;82;21059;-68
2022/02/21 10:43:17;;;;;;;6.62;3.50;;;;;;;10.02;43.74;99345.73;1727999;82;21624;-68
2022/02/21 10:45:43;;;;;;;8.50;3.25;;;;;;;10.08;43.60;99350.73;1734211;82;21027;-69
2022/02/21 10:48:20;;;;;;;5.92;3.30;;;;;;;10.09;43.30;99331.52;1733682;82;21067;-68
2022/02/21 10:51:00;;;;;;;6.35;3.50;;;;;;;10.08;43.45;99334.73;1727587;82;21302;-67
2022/02/21 10:53:41;;;;;;;6.58;2.95;;;;;;;10.08;43.34;99332.06;1737027;81;21086;-67
2022/02/21 10:56:09;;;;;;;5.58;3.30;;;;;;;10.06;43.38;99333.42;1733610;81;21511;-68
2022/02/21 10:58:35;;;;;;;6.87;3.52;;;;;;;10.01;43.57;99333.48;1731687;82;21173;-68
2022/02/21 11:01:02;;;;;;;5.50;3.20;;;;;;;10.00;43.81;99332.70;1736582;81;21059;-67
2022/02/21 11:03:29;;;;;;;7.67;3.65;;;;;;;10.05;44.05;99329.95;1736583;82;21965;-67
2022/02/21 11:05:59;;;;;;;6.45;3.42;;;;;;;10.07;43.68;99327.02;1725697;81;21103;-68
2022/02/21 11:08:28;;;;;;;6.20;3.42;;;;;;;10.07;43.99;99335.81;1725384;82;21617;-68
2022/02/21 11:11:00;;;;;;;5.90;3.30;;;;;;;10.16;44.23;99321.84;1729290;81;21043;-68
2022/02/21 11:13:29;;;;;;;6.58;3.60;;;;;;;10.28;43.89;99322.27;1730027;81;21459;-69
2022/02/21 11:15:56;;;;;;;5.28;3.35;;;;;;;10.37;43.90;99316.56;1731584;81;21666;-69
2022/02/21 11:18:23;;;;;;;6.90;3.60;;;;;;;10.47;43.84;99308.97;1727671;82;21059;-70
2022/02/21 11:20:50;;;;;;;7.08;3.30;;;;;;;10.59;43.51;99307.20;1701829;82;21137;-69
2022/02/21 11:23:17;;;;;;;6.00;3.12;;;;;;;10.67;43.38;99303.91;1745510;81;21456;-69
2022/02/21 11:25:49;;;;;;;6.55;3.72;;;;;;;10.72;43.35;99300.60;1721222;81;21020;-69
2022/02/21 11:28:42;;;;;;;5.45;3.60;;;;;;;10.78;43.37;99297.33;1718810;82;21976;-67
2022/02/21 11:31:09;;;;;;;8.90;3.33;;;;;;;10.83;43.24;99293.27;1716177;83;21116;-68
2022/02/21 11:34:03;;;;;;;6.47;3.40;;;;;;;10.85;43.36;99290.29;1716150;83;20984;-67
2022/02/21 11:36:32;;;;;;;6.87;3.58;;;;;;;10.87;43.40;99287.59;1727669;82;21066;-68
2022/02/21 11:38:59;;;;;;;6.03;2.98;;;;;;;10.85;43.17;99286.28;1731511;82;21047;-68
2022/02/21 11:41:31;;;;;;;6.28;3.12;;;;;;;10.85;43.24;99282.28;1730197;81;21487;-68
2022/02/21 11:43:58;;;;;;;5.28;2.87;;;;;;;10.80;43.07;99284.48;1734786;81;21055;-67
2022/02/21 11:46:30;;;;;;;6.78;3.17;;;;;;;10.76;43.29;99272.80;1693140;82;21091;-67